Aviation Digital Data Service (ADDS)

Output produced by METARs form (1126 UTC 23 June 2021)
found at http://www.aviationweather.gov/metar/data/
 
METAR text: ZSNB 231100Z 12004MPS CAVOK 26/17 Q1010 NOSIG
Conditions at: ZSNB (NINGBO/LISHE , CN) observed 1100 UTC 23 June 2021
Temperature: 26.0°C (79°F)
Dewpoint: 17.0°C (63°F) [RH = 58%]
Pressure (altimeter): 29.82 inches Hg (1010.0 mb)
Winds: from the ESE (120 degrees) at 9 MPH (8 knots; 4.1 m/s)
Visibility: 6 or more miles (10+ km)
Ceiling: ceiling and visibility are OK
Clouds: unknown
Weather: no significant weather observed at this time

METAR text: ZSNB 231000Z 12005MPS CAVOK 28/17 Q1009 NOSIG
Conditions at: ZSNB (NINGBO/LISHE , CN) observed 1000 UTC 23 June 2021
Temperature: 28.0°C (82°F)
Dewpoint: 17.0°C (63°F) [RH = 51%]
Pressure (altimeter): 29.79 inches Hg (1009.0 mb)
Winds: from the ESE (120 degrees) at 12 MPH (10 knots; 5.1 m/s)
Visibility: 6 or more miles (10+ km)
Ceiling: ceiling and visibility are OK
Clouds: unknown
Weather: no significant weather observed at this time

METAR text: ZSNB 230900Z 13005MPS CAVOK 30/17 Q1009 NOSIG
Conditions at: ZSNB (NINGBO/LISHE , CN) observed 0900 UTC 23 June 2021
Temperature: 30.0°C (86°F)
Dewpoint: 17.0°C (63°F) [RH = 46%]
Pressure (altimeter): 29.79 inches Hg (1009.0 mb)
Winds: from the SE (130 degrees) at 12 MPH (10 knots; 5.1 m/s)
Visibility: 6 or more miles (10+ km)
Ceiling: ceiling and visibility are OK
Clouds: unknown
Weather: no significant weather observed at this time

METAR text: ZSNB 230800Z 12004MPS CAVOK 31/15 Q1009 NOSIG
Conditions at: ZSNB (NINGBO/LISHE , CN) observed 0800 UTC 23 June 2021
Temperature: 31.0°C (88°F)
Dewpoint: 15.0°C (59°F) [RH = 38%]
Pressure (altimeter): 29.79 inches Hg (1009.0 mb)
Winds: from the ESE (120 degrees) at 9 MPH (8 knots; 4.1 m/s)
Visibility: 6 or more miles (10+ km)
Ceiling: ceiling and visibility are OK
Clouds: unknown
Weather: no significant weather observed at this time

METAR text: ZSNB 230700Z 12004MPS CAVOK 31/15 Q1009 NOSIG
Conditions at: ZSNB (NINGBO/LISHE , CN) observed 0700 UTC 23 June 2021
Temperature: 31.0°C (88°F)
Dewpoint: 15.0°C (59°F) [RH = 38%]
Pressure (altimeter): 29.79 inches Hg (1009.0 mb)
Winds: from the ESE (120 degrees) at 9 MPH (8 knots; 4.1 m/s)
Visibility: 6 or more miles (10+ km)
Ceiling: ceiling and visibility are OK
Clouds: unknown
Weather: no significant weather observed at this time

METAR text: ZSNB 230600Z 13004MPS 090V160 CAVOK 31/15 Q1010 NOSIG
Conditions at: ZSNB (NINGBO/LISHE , CN) observed 0600 UTC 23 June 2021
Temperature: 31.0°C (88°F)
Dewpoint: 15.0°C (59°F) [RH = 38%]
Pressure (altimeter): 29.82 inches Hg (1010.0 mb)
Winds: from the SE (130 degrees) at 9 MPH (8 knots; 4.1 m/s)
Visibility: 6 or more miles (10+ km)
Ceiling: ceiling and visibility are OK
Clouds: unknown
Weather: no significant weather observed at this time

METAR text: ZSNB 230500Z 11004G09MPS 070V150 CAVOK 31/15 Q1010 NOSIG
Conditions at: ZSNB (NINGBO/LISHE , CN) observed 0500 UTC 23 June 2021
Temperature: 31.0°C (88°F)
Dewpoint: 15.0°C (59°F) [RH = 38%]
Pressure (altimeter): 29.82 inches Hg (1010.0 mb)
Winds: from the ESE (110 degrees) at 9 MPH (8 knots; 4.1 m/s)
gusting to 20 MPH (17 knots; 8.7 m/s)
Visibility: 6 or more miles (10+ km)
Ceiling: ceiling and visibility are OK
Clouds: unknown
Weather: no significant weather observed at this time

METAR text: ZSNB 230400Z 13003MPS 100V180 CAVOK 30/17 Q1010 NOSIG
Conditions at: ZSNB (NINGBO/LISHE , CN) observed 0400 UTC 23 June 2021
Temperature: 30.0°C (86°F)
Dewpoint: 17.0°C (63°F) [RH = 46%]
Pressure (altimeter): 29.82 inches Hg (1010.0 mb)
Winds: from the SE (130 degrees) at 7 MPH (6 knots; 3.1 m/s)
Visibility: 6 or more miles (10+ km)
Ceiling: ceiling and visibility are OK
Clouds: unknown
Weather: no significant weather observed at this time

METAR text: ZSNB 230300Z 14003MPS 100V180 CAVOK 30/16 Q1011 NOSIG
Conditions at: ZSNB (NINGBO/LISHE , CN) observed 0300 UTC 23 June 2021
Temperature: 30.0°C (86°F)
Dewpoint: 16.0°C (61°F) [RH = 43%]
Pressure (altimeter): 29.85 inches Hg (1011.0 mb)
Winds: from the SE (140 degrees) at 7 MPH (6 knots; 3.1 m/s)
Visibility: 6 or more miles (10+ km)
Ceiling: ceiling and visibility are OK
Clouds: unknown
Weather: no significant weather observed at this time

METAR text: ZSNB 230200Z VRB01MPS CAVOK 29/16 Q1011 NOSIG
Conditions at: ZSNB (NINGBO/LISHE , CN) observed 0200 UTC 23 June 2021
Temperature: 29.0°C (84°F)
Dewpoint: 16.0°C (61°F) [RH = 45%]
Pressure (altimeter): 29.85 inches Hg (1011.0 mb)
Winds: variable direction winds at 2 MPH (2 knots; 1.0 m/s)
Visibility: 6 or more miles (10+ km)
Ceiling: ceiling and visibility are OK
Clouds: unknown
Weather: no significant weather observed at this time

METAR text: ZSNB 230100Z VRB01MPS CAVOK 26/17 Q1011 NOSIG
Conditions at: ZSNB (NINGBO/LISHE , CN) observed 0100 UTC 23 June 2021
Temperature: 26.0°C (79°F)
Dewpoint: 17.0°C (63°F) [RH = 58%]
Pressure (altimeter): 29.85 inches Hg (1011.0 mb)
Winds: variable direction winds at 2 MPH (2 knots; 1.0 m/s)
Visibility: 6 or more miles (10+ km)
Ceiling: ceiling and visibility are OK
Clouds: unknown
Weather: no significant weather observed at this time

METAR text: ZSNB 230000Z VRB01MPS CAVOK 24/17 Q1011 NOSIG
Conditions at: ZSNB (NINGBO/LISHE , CN) observed 0000 UTC 23 June 2021
Temperature: 24.0°C (75°F)
Dewpoint: 17.0°C (63°F) [RH = 65%]
Pressure (altimeter): 29.85 inches Hg (1011.0 mb)
Winds: variable direction winds at 2 MPH (2 knots; 1.0 m/s)
Visibility: 6 or more miles (10+ km)
Ceiling: ceiling and visibility are OK
Clouds: unknown
Weather: no significant weather observed at this time

METAR text: ZSNB 222300Z VRB01MPS 9000 NSC 21/18 Q1010 NOSIG
Conditions at: ZSNB (NINGBO/LISHE , CN) observed 2300 UTC 22 June 2021
Temperature: 21.0°C (70°F)
Dewpoint: 18.0°C (64°F) [RH = 83%]
Pressure (altimeter): 29.82 inches Hg (1010.0 mb)
Winds: variable direction winds at 2 MPH (2 knots; 1.0 m/s)
Visibility: 6 miles ( 9 km)
Ceiling: at least 12,000 feet AGL
Clouds: sky clear below 12,000 feet AGL
Weather: no significant weather observed at this time

METAR text: ZSNB 222200Z 20002MPS 8000 NSC 19/18 Q1010 NOSIG
Conditions at: ZSNB (NINGBO/LISHE , CN) observed 2200 UTC 22 June 2021
Temperature: 19.0°C (66°F)
Dewpoint: 18.0°C (64°F) [RH = 94%]
Pressure (altimeter): 29.82 inches Hg (1010.0 mb)
Winds: from the SSW (200 degrees) at 5 MPH (4 knots; 2.1 m/s)
Visibility: 5 miles ( 8 km)
Ceiling: at least 12,000 feet AGL
Clouds: sky clear below 12,000 feet AGL
Weather: no significant weather observed at this time

METAR text: ZSNB 222100Z 22002MPS 7000 NSC 18/17 Q1009 NOSIG
Conditions at: ZSNB (NINGBO/LISHE , CN) observed 2100 UTC 22 June 2021
Temperature: 18.0°C (64°F)
Dewpoint: 17.0°C (63°F) [RH = 94%]
Pressure (altimeter): 29.79 inches Hg (1009.0 mb)
Winds: from the SW (220 degrees) at 5 MPH (4 knots; 2.1 m/s)
Visibility: 4 miles ( 7 km)
Ceiling: at least 12,000 feet AGL
Clouds: sky clear below 12,000 feet AGL
Weather: no significant weather observed at this time

METAR text: ZSNB 222000Z 22001MPS 7000 NSC 19/18 Q1009 NOSIG
Conditions at: ZSNB (NINGBO/LISHE , CN) observed 2000 UTC 22 June 2021
Temperature: 19.0°C (66°F)
Dewpoint: 18.0°C (64°F) [RH = 94%]
Pressure (altimeter): 29.79 inches Hg (1009.0 mb)
Winds: from the SW (220 degrees) at 2 MPH (2 knots; 1.0 m/s)
Visibility: 4 miles ( 7 km)
Ceiling: at least 12,000 feet AGL
Clouds: sky clear below 12,000 feet AGL
Weather: no significant weather observed at this time

METAR text: ZSNB 221900Z 19001MPS 7000 NSC 20/19 Q1009 NOSIG
Conditions at: ZSNB (NINGBO/LISHE , CN) observed 1900 UTC 22 June 2021
Temperature: 20.0°C (68°F)
Dewpoint: 19.0°C (66°F) [RH = 94%]
Pressure (altimeter): 29.79 inches Hg (1009.0 mb)
Winds: from the S (190 degrees) at 2 MPH (2 knots; 1.0 m/s)
Visibility: 4 miles ( 7 km)
Ceiling: at least 12,000 feet AGL
Clouds: sky clear below 12,000 feet AGL
Weather: no significant weather observed at this time

METAR text: ZSNB 221800Z 21001MPS 7000 NSC 20/19 Q1009 NOSIG
Conditions at: ZSNB (NINGBO/LISHE , CN) observed 1800 UTC 22 June 2021
Temperature: 20.0°C (68°F)
Dewpoint: 19.0°C (66°F) [RH = 94%]
Pressure (altimeter): 29.79 inches Hg (1009.0 mb)
Winds: from the SSW (210 degrees) at 2 MPH (2 knots; 1.0 m/s)
Visibility: 4 miles ( 7 km)
Ceiling: at least 12,000 feet AGL
Clouds: sky clear below 12,000 feet AGL
Weather: no significant weather observed at this time

METAR text: ZSNB 221700Z 18001MPS 7000 NSC 21/20 Q1009 NOSIG
Conditions at: ZSNB (NINGBO/LISHE , CN) observed 1700 UTC 22 June 2021
Temperature: 21.0°C (70°F)
Dewpoint: 20.0°C (68°F) [RH = 94%]
Pressure (altimeter): 29.79 inches Hg (1009.0 mb)
Winds: from the S (180 degrees) at 2 MPH (2 knots; 1.0 m/s)
Visibility: 4 miles ( 7 km)
Ceiling: at least 12,000 feet AGL
Clouds: sky clear below 12,000 feet AGL
Weather: no significant weather observed at this time

METAR text: ZSNB 221600Z 23001MPS 7000 NSC 21/20 Q1009 NOSIG
Conditions at: ZSNB (NINGBO/LISHE , CN) observed 1600 UTC 22 June 2021
Temperature: 21.0°C (70°F)
Dewpoint: 20.0°C (68°F) [RH = 94%]
Pressure (altimeter): 29.79 inches Hg (1009.0 mb)
Winds: from the SW (230 degrees) at 2 MPH (2 knots; 1.0 m/s)
Visibility: 4 miles ( 7 km)
Ceiling: at least 12,000 feet AGL
Clouds: sky clear below 12,000 feet AGL
Weather: no significant weather observed at this time

METAR text: ZSNB 221500Z VRB01MPS 7000 NSC 22/20 Q1010 NOSIG
Conditions at: ZSNB (NINGBO/LISHE , CN) observed 1500 UTC 22 June 2021
Temperature: 22.0°C (72°F)
Dewpoint: 20.0°C (68°F) [RH = 88%]
Pressure (altimeter): 29.82 inches Hg (1010.0 mb)
Winds: variable direction winds at 2 MPH (2 knots; 1.0 m/s)
Visibility: 4 miles ( 7 km)
Ceiling: at least 12,000 feet AGL
Clouds: sky clear below 12,000 feet AGL
Weather: no significant weather observed at this time

METAR text: ZSNB 221400Z VRB01MPS CAVOK 23/21 Q1010 NOSIG
Conditions at: ZSNB (NINGBO/LISHE , CN) observed 1400 UTC 22 June 2021
Temperature: 23.0°C (73°F)
Dewpoint: 21.0°C (70°F) [RH = 89%]
Pressure (altimeter): 29.82 inches Hg (1010.0 mb)
Winds: variable direction winds at 2 MPH (2 knots; 1.0 m/s)
Visibility: 6 or more miles (10+ km)
Ceiling: ceiling and visibility are OK
Clouds: unknown
Weather: no significant weather observed at this time

METAR text: ZSNB 221300Z 11002MPS CAVOK 24/21 Q1009 NOSIG
Conditions at: ZSNB (NINGBO/LISHE , CN) observed 1300 UTC 22 June 2021
Temperature: 24.0°C (75°F)
Dewpoint: 21.0°C (70°F) [RH = 83%]
Pressure (altimeter): 29.79 inches Hg (1009.0 mb)
Winds: from the ESE (110 degrees) at 5 MPH (4 knots; 2.1 m/s)
Visibility: 6 or more miles (10+ km)
Ceiling: ceiling and visibility are OK
Clouds: unknown
Weather: no significant weather observed at this time

METAR text: ZSNB 221200Z 12003MPS CAVOK 25/20 Q1009 NOSIG
Conditions at: ZSNB (NINGBO/LISHE , CN) observed 1200 UTC 22 June 2021
Temperature: 25.0°C (77°F)
Dewpoint: 20.0°C (68°F) [RH = 74%]
Pressure (altimeter): 29.79 inches Hg (1009.0 mb)
Winds: from the ESE (120 degrees) at 7 MPH (6 knots; 3.1 m/s)
Visibility: 6 or more miles (10+ km)
Ceiling: ceiling and visibility are OK
Clouds: unknown
Weather: no significant weather observed at this time

METAR text: ZSNB 221100Z 13004MPS 9999 FEW030 25/19 Q1008 NOSIG
Conditions at: ZSNB (NINGBO/LISHE , CN) observed 1100 UTC 22 June 2021
Temperature: 25.0°C (77°F)
Dewpoint: 19.0°C (66°F) [RH = 69%]
Pressure (altimeter): 29.76 inches Hg (1008.0 mb)
Winds: from the SE (130 degrees) at 9 MPH (8 knots; 4.1 m/s)
Visibility: 6 or more miles (10+ km)
Ceiling: at least 12,000 feet AGL
Clouds: few clouds at 3000 feet AGL
Weather: no significant weather observed at this time

METAR text: ZSNB 221000Z 15003MPS 120V190 9999 SCT030 28/18 Q1007 NOSIG
Conditions at: ZSNB (NINGBO/LISHE , CN) observed 1000 UTC 22 June 2021
Temperature: 28.0°C (82°F)
Dewpoint: 18.0°C (64°F) [RH = 55%]
Pressure (altimeter): 29.73 inches Hg (1007.0 mb)
Winds: from the SSE (150 degrees) at 7 MPH (6 knots; 3.1 m/s)
Visibility: 6 or more miles (10+ km)
Ceiling: at least 12,000 feet AGL
Clouds: scattered clouds at 3000 feet AGL
Weather: no significant weather observed at this time

METAR text: ZSNB 220900Z VRB01MPS 9999 SCT030 29/21 Q1007 NOSIG
Conditions at: ZSNB (NINGBO/LISHE , CN) observed 0900 UTC 22 June 2021
Temperature: 29.0°C (84°F)
Dewpoint: 21.0°C (70°F) [RH = 62%]
Pressure (altimeter): 29.73 inches Hg (1007.0 mb)
Winds: variable direction winds at 2 MPH (2 knots; 1.0 m/s)
Visibility: 6 or more miles (10+ km)
Ceiling: at least 12,000 feet AGL
Clouds: scattered clouds at 3000 feet AGL
Weather: no significant weather observed at this time

METAR text: ZSNB 220800Z 20002MPS 170V230 9999 SCT030 29/22 Q1007 NOSIG
Conditions at: ZSNB (NINGBO/LISHE , CN) observed 0800 UTC 22 June 2021
Temperature: 29.0°C (84°F)
Dewpoint: 22.0°C (72°F) [RH = 66%]
Pressure (altimeter): 29.73 inches Hg (1007.0 mb)
Winds: from the SSW (200 degrees) at 5 MPH (4 knots; 2.1 m/s)
Visibility: 6 or more miles (10+ km)
Ceiling: at least 12,000 feet AGL
Clouds: scattered clouds at 3000 feet AGL
Weather: no significant weather observed at this time

METAR text: ZSNB 220700Z VRB02MPS 9999 SCT030 29/21 Q1007 NOSIG
Conditions at: ZSNB (NINGBO/LISHE , CN) observed 0700 UTC 22 June 2021
Temperature: 29.0°C (84°F)
Dewpoint: 21.0°C (70°F) [RH = 62%]
Pressure (altimeter): 29.73 inches Hg (1007.0 mb)
Winds: variable direction winds at 5 MPH (4 knots; 2.1 m/s)
Visibility: 6 or more miles (10+ km)
Ceiling: at least 12,000 feet AGL
Clouds: scattered clouds at 3000 feet AGL
Weather: no significant weather observed at this time

METAR text: ZSNB 220600Z 17002MPS 090V220 CAVOK 29/21 Q1008 NOSIG
Conditions at: ZSNB (NINGBO/LISHE , CN) observed 0600 UTC 22 June 2021
Temperature: 29.0°C (84°F)
Dewpoint: 21.0°C (70°F) [RH = 62%]
Pressure (altimeter): 29.76 inches Hg (1008.0 mb)
Winds: from the S (170 degrees) at 5 MPH (4 knots; 2.1 m/s)
Visibility: 6 or more miles (10+ km)
Ceiling: ceiling and visibility are OK
Clouds: unknown
Weather: no significant weather observed at this time

METAR text: ZSNB 220500Z 14002MPS 110V190 CAVOK 28/21 Q1008 NOSIG
Conditions at: ZSNB (NINGBO/LISHE , CN) observed 0500 UTC 22 June 2021
Temperature: 28.0°C (82°F)
Dewpoint: 21.0°C (70°F) [RH = 66%]
Pressure (altimeter): 29.76 inches Hg (1008.0 mb)
Winds: from the SE (140 degrees) at 5 MPH (4 knots; 2.1 m/s)
Visibility: 6 or more miles (10+ km)
Ceiling: ceiling and visibility are OK
Clouds: unknown
Weather: no significant weather observed at this time

METAR text: ZSNB 220400Z VRB01MPS CAVOK 27/20 Q1008 NOSIG
Conditions at: ZSNB (NINGBO/LISHE , CN) observed 0400 UTC 22 June 2021
Temperature: 27.0°C (81°F)
Dewpoint: 20.0°C (68°F) [RH = 66%]
Pressure (altimeter): 29.76 inches Hg (1008.0 mb)
Winds: variable direction winds at 2 MPH (2 knots; 1.0 m/s)
Visibility: 6 or more miles (10+ km)
Ceiling: ceiling and visibility are OK
Clouds: unknown
Weather: no significant weather observed at this time

METAR text: ZSNB 220300Z 19002MPS 150V240 8000 NSC 26/20 Q1008 NOSIG
Conditions at: ZSNB (NINGBO/LISHE , CN) observed 0300 UTC 22 June 2021
Temperature: 26.0°C (79°F)
Dewpoint: 20.0°C (68°F) [RH = 70%]
Pressure (altimeter): 29.76 inches Hg (1008.0 mb)
Winds: from the S (190 degrees) at 5 MPH (4 knots; 2.1 m/s)
Visibility: 5 miles ( 8 km)
Ceiling: at least 12,000 feet AGL
Clouds: sky clear below 12,000 feet AGL
Weather: no significant weather observed at this time

METAR text: ZSNB 220200Z 24002MPS 6000 NSC 25/21 Q1008 NOSIG
Conditions at: ZSNB (NINGBO/LISHE , CN) observed 0200 UTC 22 June 2021
Temperature: 25.0°C (77°F)
Dewpoint: 21.0°C (70°F) [RH = 79%]
Pressure (altimeter): 29.76 inches Hg (1008.0 mb)
Winds: from the WSW (240 degrees) at 5 MPH (4 knots; 2.1 m/s)
Visibility: 4 miles ( 6 km)
Ceiling: at least 12,000 feet AGL
Clouds: sky clear below 12,000 feet AGL
Weather: no significant weather observed at this time

METAR text: ZSNB 220100Z 26002MPS 210V280 6000 NSC 24/20 Q1008 NOSIG
Conditions at: ZSNB (NINGBO/LISHE , CN) observed 0100 UTC 22 June 2021
Temperature: 24.0°C (75°F)
Dewpoint: 20.0°C (68°F) [RH = 78%]
Pressure (altimeter): 29.76 inches Hg (1008.0 mb)
Winds: from the W (260 degrees) at 5 MPH (4 knots; 2.1 m/s)
Visibility: 4 miles ( 6 km)
Ceiling: at least 12,000 feet AGL
Clouds: sky clear below 12,000 feet AGL
Weather: no significant weather observed at this time

METAR text: ZSNB 220000Z 23002MPS 180V250 5000 BR NSC 23/20 Q1008 NOSIG
Conditions at: ZSNB (NINGBO/LISHE , CN) observed 0000 UTC 22 June 2021
Temperature: 23.0°C (73°F)
Dewpoint: 20.0°C (68°F) [RH = 83%]
Pressure (altimeter): 29.76 inches Hg (1008.0 mb)
Winds: from the SW (230 degrees) at 5 MPH (4 knots; 2.1 m/s)
Visibility: 3 miles ( 5 km)
Ceiling: at least 12,000 feet AGL
Clouds: sky clear below 12,000 feet AGL
Weather: BR  (mist)

Forecast for: ZSNB (NINGBO/LISHE , CN)
Text: TAF ZSNB 230908Z 2312/2412 14004MPS 5000 BR SCT040 TX30/2406Z TN21/2321Z
Forecast period: 1200 UTC 23 June 2021 to 1200 UTC 24 June 2021
Forecast type: FROM: standard forecast or significant change
Winds: from the SE (140 degrees) at 9 MPH (8 knots; 4.1 m/s)
Visibility: 3 miles (5 km)
Ceiling: at least 12,000 feet AGL
Clouds: scattered clouds at 4000 feet AGL
Weather: BR  (mist)